Time;durP1;ratioP1;P1;durP2;ratioP2;P2;SDS_P1;SDS_P2;PMS_P1;PMS_P2;Temp;Humidity;BMP_temperature;BMP_pressure;BME280_temperature;BME280_humidity;BME280_pressure;Samples;Min_cycle;Max_cycle;Signal;HPM_P1;HPM_P2
2023/04/05 00:02:20;;;;;;;5.80;5.20;;;1.30;99.90;;;;;;5071111;28;20476;-55
2023/04/05 00:04:51;;;;;;;5.40;4.90;;;1.40;99.90;;;;;;5071276;28;20477;-53
2023/04/05 00:07:20;;;;;;;6.10;5.60;;;1.40;99.90;;;;;;5071533;28;21014;-53
2023/04/05 00:09:48;;;;;;;6.00;5.30;;;1.20;99.90;;;;;;5071232;28;20451;-53
2023/04/05 00:12:15;;;;;;;4.60;4.20;;;1.10;99.90;;;;;;5070811;28;20470;-52
2023/04/05 00:14:42;;;;;;;5.23;4.83;;;1.20;99.90;;;;;;5071184;28;20476;-53
2023/04/05 00:17:10;;;;;;;5.83;5.17;;;1.20;99.90;;;;;;5071040;28;20563;-53
2023/04/05 00:19:38;;;;;;;4.90;4.47;;;1.00;99.90;;;;;;5071281;28;21110;-53
2023/04/05 00:22:05;;;;;;;5.80;5.20;;;1.10;99.90;;;;;;5070941;28;20796;-53
2023/04/05 00:24:32;;;;;;;5.20;4.80;;;0.90;99.90;;;;;;5071076;28;20492;-53
2023/04/05 00:27:01;;;;;;;5.90;5.40;;;0.80;99.90;;;;;;5070906;28;20472;-54
2023/04/05 00:29:27;;;;;;;7.47;6.00;;;0.60;99.90;;;;;;5071133;28;20453;-53
2023/04/05 00:31:54;;;;;;;6.83;6.07;;;0.60;99.90;;;;;;5058262;28;20473;-53
2023/04/05 00:34:21;;;;;;;6.13;4.80;;;0.70;99.90;;;;;;5050862;28;20449;-53
2023/04/05 00:36:49;;;;;;;6.60;4.50;;;0.90;99.90;;;;;;5051204;28;20587;-53
2023/04/05 00:39:16;;;;;;;7.93;5.07;;;0.90;99.90;;;;;;5050913;28;20467;-53
2023/04/05 00:41:43;;;;;;;6.03;5.53;;;0.90;99.90;;;;;;5050688;28;20528;-53
2023/04/05 00:44:12;;;;;;;5.83;5.20;;;0.80;99.90;;;;;;5051107;28;20529;-52
2023/04/05 00:46:39;;;;;;;6.13;5.53;;;0.80;99.90;;;;;;5050853;28;20450;-53
2023/04/05 00:49:07;;;;;;;6.57;4.63;;;0.70;99.90;;;;;;5050888;28;20697;-53
2023/04/05 00:51:34;;;;;;;5.03;4.53;;;0.90;99.90;;;;;;5056664;28;20500;-53
2023/04/05 00:54:01;;;;;;;5.50;5.00;;;0.90;99.90;;;;;;5051095;28;20493;-53
2023/04/05 00:56:29;;;;;;;5.43;4.93;;;0.90;99.90;;;;;;5050804;28;20835;-53
2023/04/05 00:58:55;;;;;;;5.80;5.07;;;1.00;99.90;;;;;;5050698;28;20528;-52
2023/04/05 01:01:26;;;;;;;5.07;4.57;;;0.90;99.90;;;;;;5056713;28;20480;-53
2023/04/05 01:03:58;;;;;;;6.83;6.00;;;0.60;99.90;;;;;;5070535;28;20449;-53
2023/04/05 01:06:53;;;;;;;6.20;5.60;;;0.40;99.90;;;;;;5070582;28;20911;-53
2023/04/05 01:09:32;;;;;;;5.80;5.03;;;0.30;99.90;;;;;;5070671;28;20447;-53
2023/04/05 01:12:04;;;;;;;7.47;4.73;;;0.20;99.90;;;;;;5070095;28;20469;-53
2023/04/05 01:14:32;;;;;;;5.63;5.13;;;0.10;99.90;;;;;;5070838;28;20504;-54
2023/04/05 01:17:02;;;;;;;5.73;4.93;;;0.40;99.90;;;;;;5070126;28;20476;-52
2023/04/05 01:19:30;;;;;;;5.47;5.00;;;0.30;99.90;;;;;;5070822;28;21008;-52
2023/04/05 01:22:36;;;;;;;5.30;4.80;;;0.20;99.90;;;;;;5069808;28;20535;-53
2023/04/05 01:25:22;;;;;;;7.10;5.10;;;0.10;99.90;;;;;;5074196;28;20528;-53
2023/04/05 01:28:07;;;;;;;5.20;4.80;;;0.10;99.90;;;;;;5073796;28;20548;-53
2023/04/05 01:30:37;;;;;;;6.03;4.50;;;0.20;99.90;;;;;;5073730;28;20483;-54
2023/04/05 01:33:14;;;;;;;4.33;3.93;;;0.20;99.90;;;;;;5054325;28;20525;-53
2023/04/05 01:35:51;;;;;;;6.80;4.93;;;0.10;99.90;;;;;;5054301;28;20441;-52
2023/04/05 01:38:23;;;;;;;5.13;4.73;;;0.20;99.90;;;;;;5054094;28;20512;-54
2023/04/05 01:40:51;;;;;;;5.63;4.63;;;0.10;99.90;;;;;;5054269;28;20448;-52
2023/04/05 01:43:18;;;;;;;4.40;4.03;;;0.00;99.90;;;;;;5059034;28;20453;-52
2023/04/05 01:45:47;;;;;;;5.27;4.80;;;0.00;99.90;;;;;;5074128;28;20527;-52
2023/04/05 01:48:14;;;;;;;6.40;5.70;;;-0.10;99.90;;;;;;5072837;28;20489;-53
2023/04/05 01:50:41;;;;;;;7.03;5.43;;;-0.50;99.90;;;;;;5073631;28;20531;-53
2023/04/05 01:53:08;;;;;;;7.57;5.13;;;-0.60;99.90;;;;;;5074087;28;20882;-52
2023/04/05 01:55:35;;;;;;;5.67;5.07;;;-0.80;99.90;;;;;;5073837;28;20445;-53
2023/04/05 01:58:02;;;;;;;7.77;6.20;;;-0.80;99.90;;;;;;5073937;28;20571;-52
2023/04/05 02:00:29;;;;;;;6.47;5.83;;;-0.80;99.90;;;;;;5073963;28;20535;-52
2023/04/05 02:02:57;;;;;;;7.87;5.37;;;-0.70;99.90;;;;;;5055020;28;20450;-52
2023/04/05 02:05:24;;;;;;;7.30;6.27;;;-0.50;99.90;;;;;;5053756;28;20544;-53
2023/04/05 02:07:51;;;;;;;5.23;4.73;;;-0.40;99.90;;;;;;5053863;28;20544;-53
2023/04/05 02:10:19;;;;;;;5.47;4.97;;;-0.30;99.90;;;;;;5054169;28;20960;-52
2023/04/05 02:12:46;;;;;;;8.53;5.00;;;-0.30;99.90;;;;;;5053545;28;20452;-52
2023/04/05 02:15:13;;;;;;;6.00;5.40;;;-0.40;99.90;;;;;;5053461;28;20957;-53
2023/04/05 02:17:44;;;;;;;6.13;5.50;;;-0.40;99.90;;;;;;5053415;28;20515;-53
2023/04/05 02:20:14;;;;;;;6.17;5.47;;;-0.40;99.90;;;;;;5053573;28;20461;-52
2023/04/05 02:22:44;;;;;;;4.57;4.13;;;-0.40;99.90;;;;;;5053114;28;20441;-53
2023/04/05 02:25:11;;;;;;;6.43;4.90;;;-0.30;99.90;;;;;;5052219;28;20534;-54
2023/04/05 02:27:38;;;;;;;6.07;5.37;;;-0.30;99.90;;;;;;5051532;28;20537;-53
2023/04/05 02:30:06;;;;;;;5.30;4.80;;;-0.20;99.90;;;;;;5051972;28;20525;-52
2023/04/05 02:32:33;;;;;;;5.90;5.30;;;0.00;99.90;;;;;;5055606;28;20532;-52
2023/04/05 02:35:00;;;;;;;4.80;4.30;;;0.00;99.90;;;;;;5058457;28;20964;-52
2023/04/05 02:37:28;;;;;;;4.97;4.40;;;-0.10;99.90;;;;;;5060445;28;20532;-52
2023/04/05 02:39:55;;;;;;;5.63;5.17;;;-0.20;99.90;;;;;;5070085;28;20547;-52
2023/04/05 02:42:22;;;;;;;5.40;4.90;;;-0.40;99.90;;;;;;5065436;28;20470;-52
2023/04/05 02:44:49;;;;;;;5.90;5.30;;;-0.40;99.90;;;;;;5065666;28;20460;-52
2023/04/05 02:47:20;;;;;;;5.97;5.33;;;-0.60;99.90;;;;;;5059327;28;21004;-53
2023/04/05 02:49:47;;;;;;;6.10;5.40;;;-0.60;99.90;;;;;;5064651;28;20503;-52
2023/04/05 02:52:14;;;;;;;6.73;4.87;;;-0.80;99.90;;;;;;5054971;28;20441;-52
2023/04/05 02:54:43;;;;;;;5.50;5.00;;;-0.70;99.90;;;;;;5058704;28;20446;-52
2023/04/05 02:57:10;;;;;;;5.53;5.03;;;-0.50;99.90;;;;;;5055126;28;21065;-52
2023/04/05 02:59:38;;;;;;;5.77;4.93;;;-0.50;99.90;;;;;;5069708;28;20472;-53
2023/04/05 03:02:05;;;;;;;7.73;5.20;;;-0.40;99.90;;;;;;5051912;28;20445;-53
2023/04/05 03:04:33;;;;;;;6.13;5.43;;;-0.50;99.90;;;;;;5069416;28;20503;-53
2023/04/05 03:07:01;;;;;;;4.73;4.33;;;-0.60;99.90;;;;;;5071294;28;20472;-52
2023/04/05 03:09:32;;;;;;;6.00;5.10;;;-0.80;99.90;;;;;;5071398;28;20452;-52
2023/04/05 03:12:02;;;;;;;7.10;4.80;;;-0.80;99.90;;;;;;5067442;28;20524;-54
2023/04/05 03:14:29;;;;;;;5.03;4.63;;;-0.90;99.90;;;;;;5068123;28;20448;-54
2023/04/05 03:16:56;;;;;;;5.80;5.20;;;-0.90;99.90;;;;;;5067690;28;21054;-52
2023/04/05 03:19:25;;;;;;;6.33;5.73;;;-0.90;99.90;;;;;;5059602;28;20449;-52
2023/04/05 03:21:52;;;;;;;5.97;5.40;;;-0.60;99.90;;;;;;5070929;28;20469;-53
2023/04/05 03:24:19;;;;;;;5.57;5.03;;;-0.40;99.90;;;;;;5071017;28;20524;-52
2023/04/05 03:26:47;;;;;;;6.80;5.60;;;-0.40;99.90;;;;;;5068702;28;20484;-52
2023/04/05 03:29:16;;;;;;;6.40;5.80;;;-0.50;99.90;;;;;;5055552;28;20521;-52
2023/04/05 03:31:43;;;;;;;5.83;4.80;;;-0.50;99.90;;;;;;5071719;28;20533;-52
2023/04/05 03:34:10;;;;;;;5.33;4.80;;;-0.70;99.90;;;;;;5071789;28;20900;-52
2023/04/05 03:36:41;;;;;;;5.60;5.00;;;-1.10;99.90;;;;;;5069539;28;20468;-51
2023/04/05 03:39:09;;;;;;;6.43;4.73;;;-1.00;99.90;;;;;;5070720;28;20440;-53
2023/04/05 03:41:36;;;;;;;5.30;4.80;;;-1.00;99.90;;;;;;5071901;28;20441;-52
2023/04/05 03:44:03;;;;;;;4.97;4.57;;;-1.00;99.90;;;;;;5061871;28;20520;-52
2023/04/05 03:46:31;;;;;;;5.90;5.23;;;-0.90;99.90;;;;;;5065598;28;20518;-53
2023/04/05 03:49:01;;;;;;;6.47;5.13;;;-0.80;99.90;;;;;;5071606;28;20916;-53
2023/04/05 03:51:27;;;;;;;5.30;4.73;;;-0.70;99.90;;;;;;5059905;28;20445;-52
2023/04/05 03:53:55;;;;;;;6.23;5.73;;;-0.90;99.90;;;;;;5063670;28;20529;-52
2023/04/05 03:56:22;;;;;;;5.90;5.30;;;-1.10;99.90;;;;;;5066370;28;20444;-53
2023/04/05 03:58:49;;;;;;;5.23;4.70;;;-1.20;99.90;;;;;;5071264;28;20852;-55
2023/04/05 04:01:17;;;;;;;6.60;5.90;;;-1.10;99.90;;;;;;5071305;28;20477;-52
2023/04/05 04:03:45;;;;;;;6.00;5.50;;;-1.10;99.90;;;;;;5071318;28;20997;-52
2023/04/05 04:06:12;;;;;;;5.67;5.10;;;-1.00;99.90;;;;;;5069998;28;20448;-53
2023/04/05 04:08:39;;;;;;;6.70;5.00;;;-0.90;99.90;;;;;;5071424;28;20543;-52
2023/04/05 04:11:07;;;;;;;4.50;4.13;;;-1.10;99.90;;;;;;5071333;28;20472;-53
2023/04/05 04:13:34;;;;;;;7.20;5.00;;;-1.10;99.90;;;;;;5071553;28;20850;-53
2023/04/05 04:16:01;;;;;;;5.97;5.43;;;-1.20;99.90;;;;;;5069326;28;20851;-52
2023/04/05 04:18:27;;;;;;;7.13;5.33;;;-1.10;99.90;;;;;;5070994;28;20567;-52
2023/04/05 04:20:57;;;;;;;5.97;5.33;;;-1.30;99.90;;;;;;5071355;28;20468;-52
2023/04/05 04:23:26;;;;;;;9.03;5.57;;;-1.10;99.90;;;;;;5071710;28;20457;-51
2023/04/05 04:25:53;;;;;;;6.30;5.63;;;-1.30;99.90;;;;;;5070401;28;20453;-53
2023/04/05 04:28:23;;;;;;;5.77;5.17;;;-1.10;99.90;;;;;;5068186;28;20461;-52
2023/04/05 04:30:50;;;;;;;5.57;4.60;;;-0.90;99.90;;;;;;5062449;28;20438;-54
2023/04/05 04:33:18;;;;;;;6.73;4.70;;;-1.10;99.90;;;;;;5068589;28;20473;-52
2023/04/05 04:35:46;;;;;;;5.33;4.83;;;-1.20;99.90;;;;;;5068186;28;20441;-52
2023/04/05 04:38:17;;;;;;;4.83;4.43;;;-1.10;99.90;;;;;;5069894;28;20476;-54
2023/04/05 04:40:46;;;;;;;5.10;4.60;;;-1.20;99.90;;;;;;5066947;28;20939;-52
2023/04/05 04:43:15;;;;;;;6.50;4.97;;;-1.30;99.90;;;;;;5057809;28;20535;-54
2023/04/05 04:45:45;;;;;;;5.87;5.37;;;-1.50;99.90;;;;;;5073610;28;20966;-53
2023/04/05 04:48:15;;;;;;;6.23;5.03;;;-1.70;99.90;;;;;;5080163;28;20456;-53
2023/04/05 04:50:43;;;;;;;5.40;4.67;;;-1.50;99.90;;;;;;5079929;28;20443;-52
2023/04/05 04:53:11;;;;;;;7.37;5.30;;;-1.50;99.90;;;;;;5078534;28;20442;-53
2023/04/05 04:55:41;;;;;;;7.10;5.80;;;-1.40;99.90;;;;;;5077783;28;20440;-54
2023/04/05 04:58:10;;;;;;;6.57;5.97;;;-1.30;99.90;;;;;;5077187;28;20477;-52
2023/04/05 05:00:38;;;;;;;6.50;5.67;;;-1.40;99.90;;;;;;5083721;28;20443;-52
2023/04/05 05:03:05;;;;;;;6.60;6.00;;;-1.10;99.90;;;;;;5080755;28;20536;-52
2023/04/05 05:05:32;;;;;;;6.90;6.30;;;-1.20;99.90;;;;;;5066488;28;20455;-52
2023/04/05 05:07:59;;;;;;;6.67;6.10;;;-1.10;99.90;;;;;;5080105;28;20484;-52
2023/04/05 05:10:26;;;;;;;6.40;5.57;;;-1.10;99.90;;;;;;5062022;28;20532;-53
2023/04/05 05:12:55;;;;;;;6.30;5.70;;;-1.20;99.90;;;;;;5057039;28;20883;-53
2023/04/05 05:15:22;;;;;;;6.47;5.60;;;-1.10;99.90;;;;;;5068446;28;20538;-52
2023/04/05 05:17:51;;;;;;;7.50;5.80;;;-1.10;99.90;;;;;;5091825;22;20458;-89
2023/04/05 05:20:19;;;;;;;6.63;6.00;;;-1.30;99.90;;;;;;5077992;28;20413;-90
2023/04/05 05:22:46;;;;;;;6.70;5.87;;;-1.10;99.90;;;;;;5077508;28;20444;-91
2023/04/05 05:25:13;;;;;;;7.00;6.40;;;-1.20;99.90;;;;;;5058235;28;20442;-91
2023/04/05 05:27:40;;;;;;;7.40;5.93;;;-1.20;99.90;;;;;;5055394;28;20437;-91
2023/04/05 05:30:10;;;;;;;8.17;7.27;;;-1.20;99.90;;;;;;5058572;28;20424;-91
2023/04/05 05:32:37;;;;;;;7.10;6.40;;;-1.40;99.90;;;;;;5056468;28;20469;-88
2023/04/05 05:35:06;;;;;;;7.07;6.40;;;-1.30;99.90;;;;;;5055220;28;20477;-91
2023/04/05 05:37:34;;;;;;;8.70;6.83;;;-1.20;99.90;;;;;;5057274;28;20427;-90
2023/04/05 05:40:02;;;;;;;8.70;8.00;;;-1.10;99.90;;;;;;5077036;28;20873;-90
2023/04/05 05:42:31;;;;;;;8.30;6.53;;;-1.10;99.90;;;;;;5076459;28;20456;-91
2023/04/05 05:44:58;;;;;;;7.33;6.50;;;-1.10;99.90;;;;;;5076589;28;20446;-91
2023/04/05 05:47:27;;;;;;;7.90;6.70;;;-1.10;99.90;;;;;;5075890;28;20477;-89
2023/04/05 05:49:54;;;;;;;8.80;7.00;;;-1.20;99.90;;;;;;5075990;28;20434;-89
2023/04/05 05:52:21;;;;;;;8.40;7.53;;;-1.00;99.90;;;;;;5076037;28;20505;-90
2023/04/05 05:54:48;;;;;;;8.90;7.90;;;-1.00;99.90;;;;;;5076228;28;20441;-91
2023/04/05 05:57:15;;;;;;;11.57;10.33;;;-1.10;99.90;;;;;;5076424;28;20460;-91
2023/04/05 05:59:42;;;;;;;11.37;9.23;;;-1.10;99.90;;;;;;5076768;28;20500;-91
2023/04/05 06:02:10;;;;;;;13.37;8.87;;;-1.00;99.90;;;;;;5076858;28;20434;-90
2023/04/05 06:04:39;;;;;;;7.93;7.13;;;-1.00;99.90;;;;;;5076431;28;20465;-91
2023/04/05 06:07:06;;;;;;;16.47;8.10;;;-1.20;99.90;;;;;;5076529;28;20426;-90
2023/04/05 06:09:34;;;;;;;16.23;11.23;;;-1.40;99.90;;;;;;5079069;28;20453;-90
2023/04/05 06:12:01;;;;;;;20.10;12.90;;;-1.30;99.90;;;;;;5080527;28;20472;-90
2023/04/05 06:14:30;;;;;;;12.20;10.37;;;-1.30;99.90;;;;;;5080464;28;20509;-90
2023/04/05 06:16:57;;;;;;;11.10;10.00;;;-1.20;99.90;;;;;;5080412;28;20450;-90
2023/04/05 06:19:24;;;;;;;11.87;10.27;;;-1.10;99.90;;;;;;5080010;28;20524;-89
2023/04/05 06:21:53;;;;;;;11.70;9.87;;;-1.10;99.90;;;;;;5080152;28;20505;-91
2023/04/05 06:24:21;;;;;;;13.03;9.30;;;-1.10;99.90;;;;;;5080313;28;20624;-90
2023/04/05 06:26:50;;;;;;;12.13;9.33;;;-1.20;99.90;;;;;;5080362;28;20418;-90
2023/04/05 06:29:17;;;;;;;15.17;11.10;;;-1.30;99.90;;;;;;5080183;28;20442;-91
2023/04/05 06:31:46;;;;;;;12.00;10.80;;;-1.10;99.90;;;;;;5079960;28;20441;-91
2023/04/05 06:34:13;;;;;;;14.47;10.77;;;-1.20;99.90;;;;;;5080099;28;20438;-91
2023/04/05 06:36:41;;;;;;;10.87;9.53;;;-1.10;99.90;;;;;;5080458;28;20426;-92
2023/04/05 06:39:10;;;;;;;11.30;9.90;;;-1.10;99.90;;;;;;5079840;28;20470;-91
2023/04/05 06:41:37;;;;;;;11.50;8.23;;;-1.20;99.90;;;;;;5080030;28;20430;-90
2023/04/05 06:44:04;;;;;;;13.07;10.10;;;-1.20;99.90;;;;;;5080011;28;20450;-90
2023/04/05 06:46:31;;;;;;;15.40;9.37;;;-1.30;99.90;;;;;;5080155;28;20508;-90
2023/04/05 06:48:59;;;;;;;11.20;9.07;;;-1.40;99.90;;;;;;5079836;28;20434;-90
2023/04/05 06:51:27;;;;;;;14.90;9.30;;;-1.50;99.90;;;;;;5079911;28;20429;-91
2023/04/05 06:53:55;;;;;;;15.27;10.63;;;-1.50;99.90;;;;;;5079839;28;20426;-90
2023/04/05 06:56:24;;;;;;;14.00;11.00;;;-1.50;99.90;;;;;;5079660;28;20433;-91
2023/04/05 06:58:52;;;;;;;15.80;9.90;;;-1.30;99.90;;;;;;5079653;28;20469;-91
2023/04/05 07:01:19;;;;;;;12.70;10.57;;;-1.10;99.90;;;;;;5079743;28;20430;-91
2023/04/05 07:03:47;;;;;;;9.93;7.80;;;-0.90;99.90;;;;;;5079229;28;20430;-91
2023/04/05 07:06:14;;;;;;;10.60;8.60;;;-1.00;99.90;;;;;;5047988;22;21077;-54
2023/04/05 07:08:41;;;;;;;10.67;7.97;;;-1.10;99.90;;;;;;5013496;28;20534;-54
2023/04/05 07:11:08;;;;;;;8.00;7.30;;;-1.30;99.90;;;;;;5012831;28;20527;-53
2023/04/05 07:13:36;;;;;;;9.27;7.40;;;-1.20;99.90;;;;;;5013494;28;20479;-53
2023/04/05 07:16:03;;;;;;;12.47;6.73;;;-1.00;99.90;;;;;;5013199;28;20519;-53
2023/04/05 07:18:30;;;;;;;9.60;7.70;;;-1.00;99.90;;;;;;5073256;23;20588;-49
2023/04/05 07:21:02;;;;;;;6.87;6.07;;;-1.00;99.90;;;;;;5032711;28;20540;-49
2023/04/05 07:23:29;;;;;;;10.60;7.77;;;-1.00;99.90;;;;;;5033696;28;20588;-50
2023/04/05 07:26:03;;;;;;;9.97;7.20;;;-1.00;99.90;;;;;;5033858;28;20466;-49
2023/04/05 07:28:30;;;;;;;10.53;7.87;;;-1.00;99.90;;;;;;5021208;28;20782;-49
2023/04/05 07:30:58;;;;;;;8.47;7.20;;;-0.60;99.90;;;;;;5011004;28;20494;-50
2023/04/05 07:33:26;;;;;;;8.00;7.23;;;-0.50;99.90;;;;;;5013167;28;20912;-50
2023/04/05 07:35:53;;;;;;;7.93;7.07;;;-0.40;99.90;;;;;;5013502;28;20479;-50
2023/04/05 07:38:20;;;;;;;7.10;6.00;;;-0.60;99.90;;;;;;5013039;28;20571;-51
2023/04/05 07:40:49;;;;;;;7.93;6.43;;;-0.40;99.90;;;;;;5013274;28;20442;-49
2023/04/05 07:43:16;;;;;;;7.67;6.20;;;-0.30;99.90;;;;;;5013595;28;20444;-49
2023/04/05 07:45:43;;;;;;;7.27;6.57;;;-0.20;99.90;;;;;;5014088;28;20452;-50
2023/04/05 07:48:11;;;;;;;8.30;7.50;;;-0.10;99.90;;;;;;5013980;28;20467;-50
2023/04/05 07:50:41;;;;;;;6.00;5.40;;;-0.10;99.90;;;;;;5013324;28;20885;-50
2023/04/05 07:53:08;;;;;;;6.67;5.97;;;0.00;99.90;;;;;;5013367;28;20448;-49
2023/04/05 07:55:38;;;;;;;11.07;6.07;;;0.20;99.90;;;;;;5013684;28;20459;-49
2023/04/05 07:58:05;;;;;;;7.07;5.83;;;0.20;99.90;;;;;;5012159;28;21049;-50
2023/04/05 08:00:31;;;;;;;5.30;4.80;;;0.30;99.90;;;;;;5011886;28;20812;-49
2023/04/05 08:02:58;;;;;;;7.27;5.70;;;0.40;99.90;;;;;;5011567;28;20510;-49
2023/04/05 08:05:28;;;;;;;7.60;5.53;;;0.50;99.90;;;;;;5013513;28;20868;-49
2023/04/05 08:07:56;;;;;;;6.20;5.47;;;0.60;99.90;;;;;;5013187;28;20542;-49
2023/04/05 08:10:23;;;;;;;5.57;5.10;;;0.60;99.90;;;;;;5013109;28;20435;-49
2023/04/05 08:12:50;;;;;;;7.60;5.93;;;0.80;99.90;;;;;;5012915;28;20543;-49
2023/04/05 08:15:17;;;;;;;5.87;5.30;;;0.70;99.90;;;;;;5014042;28;20526;-49
2023/04/05 08:17:44;;;;;;;5.83;5.33;;;0.90;99.90;;;;;;5025178;28;20490;-49
2023/04/05 08:20:12;;;;;;;7.97;5.40;;;0.90;99.90;;;;;;5034353;28;20482;-49
2023/04/05 08:22:41;;;;;;;6.17;5.43;;;1.00;99.90;;;;;;5033871;28;20536;-50
2023/04/05 08:25:09;;;;;;;5.63;4.90;;;1.10;99.90;;;;;;5034148;28;20450;-49
2023/04/05 08:27:36;;;;;;;5.13;4.50;;;1.20;99.90;;;;;;5034175;28;20474;-49
2023/04/05 08:30:04;;;;;;;5.37;4.97;;;1.30;99.90;;;;;;5033487;28;20883;-50
2023/04/05 08:32:31;;;;;;;4.60;4.13;;;1.30;99.90;;;;;;5033674;28;20504;-49
2023/04/05 08:34:58;;;;;;;6.03;4.60;;;1.40;99.90;;;;;;5034697;28;20534;-49
2023/04/05 08:37:25;;;;;;;4.90;4.40;;;1.50;99.90;;;;;;5034239;28;20470;-49
2023/04/05 08:39:54;;;;;;;5.00;4.50;;;1.80;99.90;;;;;;5035017;28;20565;-49
2023/04/05 08:42:29;;;;;;;5.50;5.00;;;1.90;99.90;;;;;;5033823;28;20451;-49
2023/04/05 08:44:59;;;;;;;6.53;4.67;;;1.90;99.90;;;;;;5034635;28;20879;-49
2023/04/05 08:47:27;;;;;;;5.23;4.73;;;2.10;99.90;;;;;;5034323;28;20513;-50
2023/04/05 08:49:54;;;;;;;7.50;4.30;;;2.10;99.90;;;;;;5034678;28;20443;-50
2023/04/05 08:52:21;;;;;;;5.47;5.00;;;2.30;99.90;;;;;;5034045;28;20442;-50
2023/04/05 08:54:48;;;;;;;4.87;4.33;;;2.40;99.90;;;;;;5033624;28;20525;-49
2023/04/05 08:57:17;;;;;;;5.70;5.20;;;2.50;99.90;;;;;;5033972;28;20447;-49
2023/04/05 08:59:45;;;;;;;5.93;4.60;;;2.70;99.90;;;;;;5034194;28;20541;-50
2023/04/05 09:02:17;;;;;;;5.77;5.17;;;2.80;99.90;;;;;;5033525;28;20492;-49
2023/04/05 09:04:45;;;;;;;5.00;4.10;;;3.00;99.90;;;;;;5033657;28;20451;-50
2023/04/05 09:07:14;;;;;;;7.63;5.10;;;3.00;99.90;;;;;;5034025;28;20922;-50
2023/04/05 09:09:46;;;;;;;6.63;5.07;;;3.10;99.90;;;;;;5034025;28;20951;-50
2023/04/05 09:12:14;;;;;;;4.60;4.13;;;3.00;99.90;;;;;;5034175;28;20442;-50
2023/04/05 09:14:43;;;;;;;5.10;4.60;;;3.10;99.90;;;;;;5033666;28;20444;-49
2023/04/05 09:17:11;;;;;;;6.03;4.97;;;3.20;99.90;;;;;;5033516;28;20524;-50
2023/04/05 09:19:38;;;;;;;5.03;4.53;;;3.40;99.30;;;;;;5033250;28;20499;-50
2023/04/05 09:22:06;;;;;;;7.80;5.30;;;3.40;99.60;;;;;;5033079;28;20446;-50
2023/04/05 09:24:38;;;;;;;5.53;4.80;;;3.60;99.90;;;;;;5033345;28;20470;-50
2023/04/05 09:27:07;;;;;;;6.23;5.77;;;3.80;99.20;;;;;;5033539;28;20458;-50
2023/04/05 09:29:34;;;;;;;6.73;4.60;;;4.10;99.90;;;;;;5032837;28;20531;-49
2023/04/05 09:32:03;;;;;;;5.57;4.40;;;4.20;99.20;;;;;;5032673;28;20464;-50
2023/04/05 09:34:32;;;;;;;6.20;5.20;;;4.20;99.00;;;;;;5033309;28;20523;-50
2023/04/05 09:36:59;;;;;;;5.67;5.17;;;4.40;99.40;;;;;;5033597;28;20477;-51
2023/04/05 09:39:29;;;;;;;7.17;6.57;;;4.50;99.90;;;;;;5033654;28;20479;-51
2023/04/05 09:42:10;;;;;;;5.83;5.23;;;4.80;99.90;;;;;;5033160;28;20446;-50
2023/04/05 09:44:53;;;;;;;5.20;4.43;;;4.90;99.90;;;;;;5035974;28;20818;-50
2023/04/05 09:47:26;;;;;;;5.47;4.30;;;4.90;98.90;;;;;;5038608;28;20455;-50
2023/04/05 09:49:53;;;;;;;5.60;4.37;;;5.10;99.70;;;;;;5038471;28;20478;-50
2023/04/05 09:52:22;;;;;;;4.70;4.20;;;5.10;98.40;;;;;;5037527;28;20998;-50
2023/04/05 09:54:51;;;;;;;6.13;4.53;;;5.40;99.90;;;;;;5037639;28;20448;-50
2023/04/05 09:57:18;;;;;;;4.63;4.23;;;5.40;99.30;;;;;;5037221;28;20478;-50
2023/04/05 09:59:46;;;;;;;4.27;3.90;;;5.30;98.80;;;;;;5037957;28;20484;-49
2023/04/05 10:02:13;;;;;;;5.13;4.63;;;5.40;99.10;;;;;;5036733;28;20435;-50
2023/04/05 10:04:42;;;;;;;5.43;4.67;;;5.50;97.90;;;;;;5035693;28;20479;-50
2023/04/05 10:07:12;;;;;;;4.50;4.17;;;5.50;97.30;;;;;;5035817;28;20521;-50
2023/04/05 10:09:39;;;;;;;4.43;4.03;;;5.40;97.40;;;;;;5037053;28;20697;-50
2023/04/05 10:12:07;;;;;;;5.43;4.93;;;5.60;96.80;;;;;;5036178;28;20980;-50
2023/04/05 10:14:35;;;;;;;5.20;4.70;;;5.70;96.80;;;;;;5035331;28;20449;-50
2023/04/05 10:17:09;;;;;;;5.80;5.10;;;5.80;98.10;;;;;;5034706;28;20535;-51
2023/04/05 10:19:50;;;;;;;8.43;5.50;;;5.80;98.10;;;;;;5037026;28;20483;-50
2023/04/05 10:22:24;;;;;;;5.60;5.10;;;6.00;99.30;;;;;;5037174;28;20529;-50
2023/04/05 10:24:55;;;;;;;5.20;4.70;;;6.10;98.60;;;;;;5036045;28;20535;-50
2023/04/05 10:27:27;;;;;;;4.73;4.27;;;6.10;96.90;;;;;;5035917;28;20814;-50
2023/04/05 10:30:04;;;;;;;5.60;5.10;;;6.00;96.50;;;;;;5035803;28;20442;-50
2023/04/05 10:32:41;;;;;;;4.70;4.10;;;6.10;96.20;;;;;;5037008;28;20435;-50
2023/04/05 10:35:16;;;;;;;5.27;4.77;;;6.20;97.80;;;;;;5036344;28;20442;-50
2023/04/05 10:37:52;;;;;;;6.60;4.83;;;6.10;95.50;;;;;;5036570;28;20479;-50
2023/04/05 10:40:21;;;;;;;5.30;4.80;;;6.10;96.70;;;;;;5036204;28;20517;-49
2023/04/05 10:42:49;;;;;;;4.23;3.93;;;6.30;95.70;;;;;;5035538;28;20545;-50
2023/04/05 10:45:21;;;;;;;4.63;4.23;;;6.30;95.20;;;;;;5035321;28;20535;-51
2023/04/05 10:47:54;;;;;;;4.90;4.40;;;6.20;94.40;;;;;;5034755;28;20557;-51
2023/04/05 10:50:24;;;;;;;4.30;3.90;;;6.60;98.10;;;;;;5033498;28;20442;-51
2023/04/05 10:52:52;;;;;;;4.13;3.63;;;6.70;94.80;;;;;;5033298;28;20541;-51
2023/04/05 10:55:19;;;;;;;4.50;4.10;;;6.70;93.90;;;;;;5027473;28;20442;-50
2023/04/05 10:57:48;;;;;;;4.20;3.20;;;6.70;94.80;;;;;;5032663;28;20453;-51
2023/04/05 11:00:16;;;;;;;4.03;3.73;;;6.60;92.60;;;;;;5033850;28;20485;-51
2023/04/05 11:02:43;;;;;;;3.53;2.93;;;6.70;93.30;;;;;;5033933;28;20481;-50
2023/04/05 11:05:33;;;;;;;7.20;3.93;;;6.90;93.40;;;;;;5034210;28;20517;-51
2023/04/05 11:08:04;;;;;;;4.73;3.77;;;6.80;91.90;;;;;;5034556;28;20480;-51
2023/04/05 11:10:33;;;;;;;5.03;4.53;;;6.90;92.00;;;;;;5034599;28;20439;-51
2023/04/05 11:13:05;;;;;;;3.63;3.20;;;6.80;94.00;;;;;;5034589;28;20446;-51
2023/04/05 11:15:33;;;;;;;4.97;4.23;;;6.90;93.90;;;;;;5033335;28;20453;-51
2023/04/05 11:18:11;;;;;;;2.77;2.57;;;7.00;95.30;;;;;;5032178;28;20958;-51
2023/04/05 11:20:46;;;;;;;3.50;3.20;;;7.00;84.60;;;;;;5034768;28;20485;-51
2023/04/05 11:23:15;;;;;;;5.67;3.80;;;6.90;89.30;;;;;;5035083;28;20517;-49
2023/04/05 11:25:49;;;;;;;3.70;3.40;;;7.00;93.20;;;;;;5034403;28;20454;-48
2023/04/05 11:28:24;;;;;;;3.43;3.13;;;7.10;92.20;;;;;;5033965;28;20469;-49
2023/04/05 11:30:52;;;;;;;4.53;4.10;;;7.30;93.30;;;;;;5033826;28;20434;-49
2023/04/05 11:33:39;;;;;;;4.90;4.47;;;7.20;91.90;;;;;;5034436;28;20446;-49
2023/04/05 11:36:09;;;;;;;3.93;3.63;;;7.20;92.30;;;;;;5034279;28;20473;-50
2023/04/05 11:38:36;;;;;;;4.20;3.80;;;7.20;90.00;;;;;;5034083;28;20882;-50
2023/04/05 11:41:11;;;;;;;4.43;4.03;;;7.50;93.70;;;;;;5034074;28;20535;-49
2023/04/05 11:43:38;;;;;;;3.97;3.57;;;7.40;92.40;;;;;;5033492;28;20466;-52
2023/04/05 11:46:05;;;;;;;8.93;4.33;;;7.40;93.50;;;;;;5033062;28;20802;-52
2023/04/05 11:48:33;;;;;;;4.40;4.00;;;7.60;93.30;;;;;;5034499;28;20533;-49
2023/04/05 11:51:00;;;;;;;4.03;3.73;;;7.40;90.40;;;;;;5033944;28;20446;-50
2023/04/05 11:53:28;;;;;;;4.77;4.37;;;7.60;95.50;;;;;;5032475;28;20473;-52
2023/04/05 11:55:55;;;;;;;5.90;4.80;;;7.40;93.20;;;;;;5031515;28;20474;-53
2023/04/05 11:58:24;;;;;;;4.87;4.37;;;7.70;96.10;;;;;;5032171;28;21003;-52
2023/04/05 12:00:59;;;;;;;6.00;4.40;;;7.70;94.30;;;;;;5032130;28;20541;-50
2023/04/05 12:03:27;;;;;;;4.53;3.90;;;7.80;93.90;;;;;;5032653;28;20444;-50
2023/04/05 12:05:56;;;;;;;4.20;3.90;;;7.60;93.20;;;;;;5032111;28;20445;-52
2023/04/05 12:08:24;;;;;;;4.60;4.20;;;7.80;93.40;;;;;;5032718;28;20470;-51
2023/04/05 12:10:56;;;;;;;4.80;4.27;;;7.80;92.70;;;;;;5032996;28;20434;-51
2023/04/05 12:13:27;;;;;;;4.57;4.17;;;8.00;93.50;;;;;;5031898;28;21012;-51
2023/04/05 12:15:57;;;;;;;5.73;5.13;;;8.00;94.20;;;;;;5032717;28;20446;-50
2023/04/05 12:18:25;;;;;;;4.53;4.13;;;7.90;93.70;;;;;;5032169;28;20520;-51
2023/04/05 12:20:52;;;;;;;4.73;4.27;;;8.00;92.40;;;;;;5032531;28;20514;-51
2023/04/05 12:23:20;;;;;;;3.87;3.50;;;8.00;92.70;;;;;;5032156;28;20533;-51
2023/04/05 12:25:47;;;;;;;4.80;3.97;;;8.00;91.30;;;;;;5032458;28;20457;-51
2023/04/05 12:28:16;;;;;;;4.13;3.80;;;8.10;92.30;;;;;;5031780;28;20499;-51
2023/04/05 12:30:49;;;;;;;4.03;3.63;;;8.10;90.80;;;;;;5030965;28;20446;-52
2023/04/05 12:33:26;;;;;;;3.50;3.20;;;7.90;90.40;;;;;;5031152;28;20589;-51
2023/04/05 12:35:53;;;;;;;4.00;3.70;;;7.90;88.30;;;;;;5032023;28;20439;-51
2023/04/05 12:38:20;;;;;;;3.40;3.10;;;7.90;92.20;;;;;;5030234;28;20497;-52
2023/04/05 12:40:47;;;;;;;3.20;2.90;;;8.00;90.90;;;;;;5031878;28;20565;-51
2023/04/05 12:43:18;;;;;;;3.73;3.33;;;8.00;88.20;;;;;;5032383;28;20880;-51
2023/04/05 12:45:45;;;;;;;3.80;3.30;;;7.90;86.90;;;;;;5032636;28;20538;-51
2023/04/05 12:48:14;;;;;;;4.50;3.50;;;8.00;88.70;;;;;;5031931;28;20458;-51
2023/04/05 12:50:45;;;;;;;3.40;3.10;;;8.00;87.30;;;;;;5033083;28;20450;-52
2023/04/05 12:53:19;;;;;;;4.37;4.07;;;7.80;80.20;;;;;;5032806;28;20477;-52
2023/04/05 12:55:49;;;;;;;4.53;3.50;;;8.00;91.50;;;;;;5032671;28;20453;-50
2023/04/05 12:58:18;;;;;;;4.40;3.70;;;8.10;86.40;;;;;;5033002;28;20890;-51
2023/04/05 13:00:46;;;;;;;4.70;2.70;;;8.20;89.80;;;;;;5032486;28;20506;-51